createdAt,value
2019-03-31T00:00:10.156Z,30.57
2019-03-31T00:02:40.295Z,35.00
2019-03-31T00:05:09.456Z,26.73
2019-03-31T00:07:39.974Z,28.60
2019-03-31T00:10:09.332Z,31.60
2019-03-31T00:12:39.422Z,32.43
2019-03-31T00:15:09.797Z,29.13
2019-03-31T00:17:39.877Z,32.70
2019-03-31T00:20:09.142Z,31.57
2019-03-31T00:22:39.505Z,33.03
2019-03-31T00:25:09.746Z,30.77
2019-03-31T00:27:39.813Z,31.80
2019-03-31T00:30:10.297Z,29.70
2019-03-31T00:32:40.394Z,25.73
2019-03-31T00:35:09.821Z,28.33
2019-03-31T00:37:40.193Z,25.63
2019-03-31T00:40:09.405Z,28.90
2019-03-31T00:42:39.461Z,26.10
2019-03-31T00:45:10.042Z,26.20
2019-03-31T00:47:40.252Z,27.27
2019-03-31T00:50:09.415Z,30.77
2019-03-31T00:52:39.810Z,30.37
2019-03-31T00:55:10.221Z,35.43
2019-03-31T00:57:40.311Z,32.17
2019-03-31T01:00:11.451Z,34.53
2019-03-31T01:02:41.544Z,32.17
2019-03-31T01:05:11.821Z,33.30
2019-03-31T01:07:42.468Z,33.63
2019-03-31T01:10:13.701Z,25.07
2019-03-31T01:12:42.843Z,25.03
2019-03-31T01:15:17.483Z,26.93
2019-03-31T01:17:46.632Z,25.53
2019-03-31T01:20:15.777Z,28.60
2019-03-31T01:22:46.213Z,27.33
2019-03-31T01:25:16.589Z,24.97
2019-03-31T01:27:46.774Z,31.67
2019-03-31T01:30:18.137Z,29.17
2019-03-31T01:32:47.291Z,29.07
2019-03-31T01:35:16.686Z,22.67
2019-03-31T01:37:47.347Z,26.37
2019-03-31T01:40:16.500Z,30.00
2019-03-31T01:42:46.654Z,24.60
2019-03-31T01:45:16.217Z,30.80
2019-03-31T01:47:46.305Z,25.10
2019-03-31T01:50:16.613Z,27.20
2019-03-31T01:52:47.073Z,28.90
2019-03-31T01:55:16.233Z,26.40
2019-03-31T01:57:46.312Z,28.73
2019-03-31T02:00:47.987Z,26.47
2019-03-31T02:03:18.250Z,28.67
2019-03-31T02:05:48.622Z,32.37
2019-03-31T02:08:19.169Z,31.73
2019-03-31T02:10:49.325Z,30.80
2019-03-31T02:13:21.057Z,29.17
2019-03-31T02:15:50.847Z,34.70
2019-03-31T02:18:20.933Z,33.27
2019-03-31T02:20:52.773Z,25.47
2019-03-31T02:23:21.964Z,26.63
2019-03-31T02:25:52.101Z,24.43
2019-03-31T02:28:22.183Z,24.57
2019-03-31T02:30:52.370Z,27.63
2019-03-31T02:33:22.768Z,26.50
2019-03-31T02:35:52.844Z,33.50
2019-03-31T02:38:22.105Z,26.13
2019-03-31T02:40:52.774Z,30.10
2019-03-31T02:43:23.153Z,25.83
2019-03-31T02:45:53.598Z,31.40
2019-03-31T02:48:23.027Z,26.33
2019-03-31T02:50:55.636Z,32.17
2019-03-31T02:53:26.373Z,25.20
2019-03-31T02:55:58.309Z,29.13
2019-03-31T02:58:28.782Z,32.90
2019-03-31T03:00:59.270Z,33.13
2019-03-31T03:03:30.045Z,30.37
2019-03-31T03:06:03.266Z,27.23
2019-03-31T03:08:34.910Z,28.60
2019-03-31T03:11:05.438Z,26.83
2019-03-31T03:13:36.898Z,24.60
2019-03-31T03:16:19.488Z,28.03
2019-03-31T03:18:50.347Z,26.80
2019-03-31T03:21:24.197Z,27.80
2019-03-31T03:23:52.817Z,29.77
2019-03-31T03:26:22.957Z,27.97
2019-03-31T03:28:53.256Z,27.23
2019-03-31T03:31:22.570Z,31.20
2019-03-31T03:33:52.165Z,27.93
2019-03-31T03:36:22.255Z,29.20
2019-03-31T03:38:52.318Z,28.30
2019-03-31T03:41:22.700Z,26.60
2019-03-31T03:43:56.903Z,27.23
2019-03-31T03:46:24.490Z,24.20
2019-03-31T03:48:54.996Z,29.53
2019-03-31T03:51:25.053Z,29.27
2019-03-31T03:53:55.157Z,28.73
2019-03-31T03:56:29.000Z,31.03
2019-03-31T03:58:56.347Z,29.27
2019-03-31T04:01:31.104Z,35.47
2019-03-31T04:04:01.464Z,28.90
2019-03-31T04:06:31.538Z,27.63
2019-03-31T04:09:01.675Z,29.83
2019-03-31T04:11:32.063Z,28.80
2019-03-31T04:14:02.154Z,28.90
2019-03-31T04:16:32.329Z,29.73
2019-03-31T04:19:03.533Z,27.93
2019-03-31T04:21:33.608Z,29.03
2019-03-31T04:24:02.819Z,27.17
2019-03-31T04:26:33.155Z,27.67
2019-03-31T04:29:02.290Z,32.60
2019-03-31T04:31:32.404Z,28.43
2019-03-31T04:34:02.822Z,31.97
2019-03-31T04:36:32.910Z,31.60
2019-03-31T04:39:02.990Z,32.00
2019-03-31T04:41:33.363Z,24.87
2019-03-31T04:44:02.515Z,31.23
2019-03-31T04:46:32.733Z,33.47
2019-03-31T04:49:03.098Z,31.27
2019-03-31T04:51:33.186Z,32.37
2019-03-31T04:54:02.382Z,32.53
2019-03-31T04:56:32.822Z,32.60
2019-03-31T04:59:02.889Z,34.00
2019-03-31T05:01:33.007Z,34.27
2019-03-31T05:04:04.972Z,33.30
2019-03-31T05:06:34.197Z,30.70
2019-03-31T05:09:05.842Z,29.37
2019-03-31T05:11:36.332Z,29.97
2019-03-31T05:14:06.400Z,31.03
2019-03-31T05:16:35.612Z,32.90
2019-03-31T05:19:05.969Z,31.70
2019-03-31T05:21:36.897Z,31.53
2019-03-31T05:24:07.000Z,34.73
2019-03-31T05:26:36.470Z,32.93
2019-03-31T05:29:06.554Z,33.33
2019-03-31T05:31:35.721Z,34.93
2019-03-31T05:34:18.526Z,34.17
2019-03-31T05:36:37.800Z,38.37
2019-03-31T05:39:08.252Z,37.87
2019-03-31T05:41:38.604Z,35.63
2019-03-31T05:44:08.738Z,37.37
2019-03-31T05:46:37.988Z,36.13
2019-03-31T05:49:08.371Z,36.33
2019-03-31T05:51:38.616Z,32.77
2019-03-31T05:54:09.594Z,35.33
2019-03-31T05:56:39.955Z,33.60
2019-03-31T05:59:09.108Z,37.27
2019-03-31T06:01:39.207Z,38.63
2019-03-31T06:04:08.629Z,40.87
2019-03-31T06:06:37.787Z,38.97
2019-03-31T06:09:08.124Z,36.60
2019-03-31T06:11:38.481Z,34.90
2019-03-31T06:14:07.717Z,38.57
2019-03-31T06:16:37.808Z,38.13
2019-03-31T06:19:09.101Z,35.97
2019-03-31T06:21:40.054Z,39.83
2019-03-31T06:26:34.496Z,35.53
2019-03-31T06:29:04.296Z,37.83
2019-03-31T06:31:34.446Z,32.13
2019-03-31T06:34:04.830Z,32.53
2019-03-31T06:36:35.140Z,34.97
2019-03-31T06:39:07.147Z,44.30
2019-03-31T06:41:36.584Z,37.87
2019-03-31T06:44:05.892Z,34.13
2019-03-31T06:46:36.101Z,39.27
2019-03-31T06:49:06.969Z,42.97
2019-03-31T06:51:36.210Z,37.93
2019-03-31T06:54:05.396Z,40.13
2019-03-31T06:56:35.801Z,40.20
2019-03-31T06:59:05.907Z,40.40
2019-03-31T07:01:35.056Z,40.23
2019-03-31T07:04:05.528Z,43.63
2019-03-31T07:06:35.645Z,47.87
2019-03-31T07:09:07.139Z,43.60
2019-03-31T07:11:36.576Z,41.87
2019-03-31T07:14:06.769Z,42.27
2019-03-31T07:16:35.920Z,40.93
2019-03-31T07:19:06.306Z,42.43
2019-03-31T07:21:36.196Z,43.07
2019-03-31T07:24:07.157Z,40.00
2019-03-31T07:26:36.592Z,39.93
2019-03-31T07:29:06.698Z,42.27
2019-03-31T07:31:35.852Z,44.53
2019-03-31T07:34:06.394Z,45.47
2019-03-31T07:36:35.952Z,49.10
2019-03-31T07:39:06.651Z,48.93
2019-03-31T07:41:36.226Z,50.00
2019-03-31T07:44:06.280Z,54.60
2019-03-31T07:46:36.386Z,51.07
2019-03-31T07:49:05.879Z,61.20
2019-03-31T07:51:37.524Z,56.60
2019-03-31T07:54:07.832Z,59.13
2019-03-31T07:56:37.874Z,59.77
2019-03-31T07:59:08.002Z,68.97
2019-03-31T08:01:38.361Z,59.07
2019-03-31T08:04:08.451Z,61.27
2019-03-31T08:06:38.646Z,56.03
2019-03-31T08:09:09.097Z,64.33
2019-03-31T08:11:39.200Z,65.97
2019-03-31T08:14:09.352Z,68.30
2019-03-31T08:16:39.722Z,71.47
2019-03-31T08:19:08.892Z,69.43
2019-03-31T08:21:39.032Z,75.57
2019-03-31T08:24:10.285Z,73.03
2019-03-31T08:26:41.272Z,78.50
2019-03-31T08:29:11.418Z,85.90
2019-03-31T08:31:41.807Z,81.97
2019-03-31T08:34:11.895Z,81.03
2019-03-31T08:36:41.173Z,81.73
2019-03-31T08:39:11.556Z,81.30
2019-03-31T08:41:41.637Z,85.10
2019-03-31T08:44:11.778Z,75.20
2019-03-31T08:46:42.154Z,80.37
2019-03-31T08:49:12.265Z,83.97
2019-03-31T08:51:42.373Z,77.47
2019-03-31T08:54:12.732Z,79.07
2019-03-31T08:56:42.834Z,88.87
2019-03-31T08:59:12.999Z,86.70
2019-03-31T09:01:43.105Z,87.20
2019-03-31T09:04:13.212Z,83.07
2019-03-31T09:06:42.808Z,81.27
2019-03-31T09:09:13.189Z,86.03
2019-03-31T09:11:42.345Z,82.30
2019-03-31T09:14:12.563Z,83.20
2019-03-31T09:16:42.928Z,76.27
2019-03-31T09:19:13.021Z,77.93
2019-03-31T09:21:42.211Z,79.90
2019-03-31T09:24:12.582Z,80.70
2019-03-31T09:26:42.785Z,85.20
2019-03-31T09:29:13.861Z,74.93
2019-03-31T09:31:44.232Z,81.13
2019-03-31T09:34:14.362Z,77.80
2019-03-31T09:36:44.498Z,85.77
2019-03-31T09:39:15.015Z,83.30
2019-03-31T09:41:45.118Z,85.03
2019-03-31T09:44:15.242Z,78.33
2019-03-31T09:46:45.691Z,75.63
2019-03-31T09:49:15.786Z,78.13
2019-03-31T09:51:46.049Z,72.90
2019-03-31T09:54:15.465Z,77.33
2019-03-31T09:56:45.596Z,79.47
2019-03-31T09:59:15.741Z,80.77
2019-03-31T10:01:46.101Z,73.20
2019-03-31T10:04:16.214Z,73.13
2019-03-31T10:06:45.404Z,78.53
2019-03-31T10:09:15.790Z,75.37
2019-03-31T10:11:45.887Z,79.97
2019-03-31T10:14:16.130Z,77.57
2019-03-31T10:16:46.481Z,71.73
2019-03-31T10:19:15.641Z,77.80
2019-03-31T10:21:45.756Z,70.17
2019-03-31T10:24:16.181Z,72.53
2019-03-31T10:26:46.332Z,79.33
2019-03-31T10:29:15.541Z,80.17
2019-03-31T10:31:48.237Z,77.20
2019-03-31T10:34:18.332Z,84.07
2019-03-31T10:36:48.455Z,74.97
2019-03-31T10:39:18.862Z,76.53
2019-03-31T10:41:48.954Z,82.87
2019-03-31T10:44:19.155Z,74.40
2019-03-31T10:46:49.529Z,74.47
2019-03-31T10:49:20.185Z,73.60
2019-03-31T10:51:49.428Z,75.60
2019-03-31T10:54:18.872Z,73.77
2019-03-31T10:56:48.957Z,74.90
2019-03-31T10:59:19.102Z,75.23
2019-03-31T11:01:49.467Z,81.90
2019-03-31T11:04:19.552Z,80.70
2019-03-31T11:06:58.812Z,73.77
2019-03-31T11:09:21.043Z,73.23
2019-03-31T11:11:51.135Z,69.63
2019-03-31T11:14:21.303Z,71.27
2019-03-31T11:16:52.274Z,78.90
2019-03-31T11:19:21.434Z,71.13
2019-03-31T11:22:20.109Z,74.07
2019-03-31T11:24:49.282Z,75.70
2019-03-31T11:27:19.376Z,69.83
2019-03-31T11:29:49.777Z,67.20
2019-03-31T11:32:20.370Z,71.20
2019-03-31T11:34:51.334Z,68.27
2019-03-31T11:37:22.257Z,68.13
2019-03-31T11:39:52.677Z,64.47
2019-03-31T11:42:22.806Z,66.23
2019-03-31T11:44:53.889Z,66.83
2019-03-31T11:47:23.996Z,65.00
2019-03-31T11:49:58.423Z,66.63
2019-03-31T11:52:28.518Z,60.93
2019-03-31T11:54:58.728Z,59.00
2019-03-31T11:57:28.997Z,61.00
2019-03-31T11:59:59.121Z,61.10
2019-03-31T12:02:29.910Z,55.43
2019-03-31T12:05:00.151Z,59.97
2019-03-31T12:07:29.532Z,54.73
2019-03-31T12:09:59.633Z,60.03
2019-03-31T12:12:30.037Z,55.60
2019-03-31T12:15:00.725Z,53.90
2019-03-31T12:17:31.306Z,55.40
2019-03-31T12:20:02.353Z,56.30
2019-03-31T12:22:32.920Z,48.00
2019-03-31T12:25:02.079Z,56.37
2019-03-31T12:27:32.201Z,52.17
2019-03-31T12:30:02.574Z,49.40
2019-03-31T12:32:32.661Z,53.00
2019-03-31T12:35:01.873Z,51.40
2019-03-31T12:37:42.322Z,42.20
2019-03-31T12:40:06.401Z,47.10
2019-03-31T12:42:35.623Z,46.30
2019-03-31T12:45:06.356Z,48.27
2019-03-31T12:47:35.650Z,44.40
2019-03-31T12:50:06.155Z,48.23
2019-03-31T12:52:46.188Z,49.10
2019-03-31T12:55:07.614Z,49.83
2019-03-31T12:57:36.900Z,43.73
2019-03-31T13:00:08.647Z,40.67
2019-03-31T13:02:38.787Z,40.80
2019-03-31T13:05:09.090Z,42.10
2019-03-31T13:07:39.999Z,37.30
2019-03-31T13:10:09.264Z,36.20
2019-03-31T13:12:39.366Z,39.13
2019-03-31T13:15:09.327Z,36.27
2019-03-31T13:17:39.617Z,39.27
2019-03-31T13:20:08.906Z,38.07
2019-03-31T13:22:39.270Z,39.20
2019-03-31T13:25:09.506Z,33.23
2019-03-31T13:27:39.652Z,38.17
2019-03-31T13:30:09.002Z,33.97
2019-03-31T13:32:39.336Z,33.60
2019-03-31T13:35:08.959Z,32.53
2019-03-31T13:37:39.033Z,33.70
2019-03-31T13:40:10.759Z,34.97
2019-03-31T13:42:41.129Z,34.13
2019-03-31T13:45:11.427Z,33.33
2019-03-31T13:47:41.600Z,33.33
2019-03-31T13:50:13.045Z,32.50
2019-03-31T13:52:42.219Z,32.43
2019-03-31T13:55:12.610Z,27.40
2019-03-31T13:57:42.970Z,29.97
2019-03-31T14:00:12.914Z,31.60
2019-03-31T14:02:42.977Z,30.50
2019-03-31T14:05:13.662Z,30.10
2019-03-31T14:07:45.845Z,29.47
2019-03-31T14:10:17.134Z,28.27
2019-03-31T14:12:51.108Z,28.60
2019-03-31T14:15:21.673Z,30.73
2019-03-31T14:17:52.315Z,33.80
2019-03-31T14:20:21.608Z,31.10
2019-03-31T14:22:54.172Z,30.37
2019-03-31T14:25:24.289Z,29.27
2019-03-31T14:27:53.437Z,30.03
2019-03-31T14:30:22.818Z,30.20
2019-03-31T14:32:57.800Z,31.23
2019-03-31T14:35:28.245Z,30.33
2019-03-31T14:37:58.355Z,24.40
2019-03-31T14:40:28.528Z,25.73
2019-03-31T14:43:00.086Z,26.33
2019-03-31T14:45:30.097Z,27.23
2019-03-31T14:48:00.602Z,25.80
2019-03-31T14:50:35.367Z,23.80
2019-03-31T14:53:06.130Z,25.37
2019-03-31T14:55:35.312Z,24.13
2019-03-31T14:58:07.932Z,24.63
2019-03-31T15:00:38.104Z,26.10
2019-03-31T15:03:08.240Z,25.97
2019-03-31T15:05:37.440Z,25.20
2019-03-31T15:08:07.669Z,27.83
2019-03-31T15:10:38.052Z,22.77
2019-03-31T15:13:08.339Z,29.37
2019-03-31T15:15:38.439Z,25.40
2019-03-31T15:18:09.013Z,27.73
2019-03-31T15:20:39.193Z,25.43
2019-03-31T15:23:08.367Z,23.90
2019-03-31T15:25:38.976Z,22.00
2019-03-31T15:28:08.162Z,24.70
2019-03-31T15:30:38.267Z,24.53
2019-03-31T15:33:08.650Z,25.10
2019-03-31T15:35:38.897Z,24.37
2019-03-31T15:38:08.993Z,21.40
2019-03-31T15:40:39.376Z,22.87
2019-03-31T15:43:08.558Z,21.73
2019-03-31T15:45:39.543Z,22.90
2019-03-31T15:48:08.969Z,22.23
2019-03-31T15:50:38.209Z,19.63
2019-03-31T15:53:08.465Z,20.10
2019-03-31T15:55:39.009Z,19.20
2019-03-31T15:58:09.282Z,21.40
2019-03-31T16:00:45.147Z,21.83
2019-03-31T16:03:11.586Z,21.30
2019-03-31T16:05:41.157Z,20.70
2019-03-31T16:08:10.841Z,19.07
2019-03-31T16:10:43.450Z,18.57
2019-03-31T16:13:13.071Z,18.37
2019-03-31T16:15:41.980Z,17.07
2019-03-31T16:18:11.937Z,15.07
2019-03-31T16:20:41.487Z,16.17
2019-03-31T16:23:10.390Z,15.13
2019-03-31T16:25:43.429Z,15.50
2019-03-31T16:28:13.013Z,19.17
2019-03-31T16:30:42.185Z,19.70
2019-03-31T16:33:12.034Z,17.07
2019-03-31T16:35:41.285Z,21.07
2019-03-31T16:38:10.457Z,19.53
2019-03-31T16:40:40.121Z,24.03
2019-03-31T16:43:09.682Z,18.83
2019-03-31T16:45:38.601Z,14.50
2019-03-31T16:48:09.217Z,17.30
2019-03-31T16:50:39.115Z,15.53
2019-03-31T16:53:08.700Z,16.77
2019-03-31T16:55:37.624Z,15.47
2019-03-31T16:58:09.486Z,16.17
2019-03-31T17:00:41.337Z,15.90
2019-03-31T17:03:10.927Z,14.53
2019-03-31T17:05:42.825Z,14.77
2019-03-31T17:08:13.546Z,14.03
2019-03-31T17:10:43.176Z,13.07
2019-03-31T17:13:12.562Z,14.83
2019-03-31T17:15:42.271Z,13.17
2019-03-31T17:18:11.931Z,17.70
2019-03-31T17:20:42.060Z,14.47
2019-03-31T17:23:11.938Z,15.80
2019-03-31T17:25:41.737Z,13.10
2019-03-31T17:28:11.574Z,12.47
2019-03-31T17:30:40.756Z,14.43
2019-03-31T17:33:10.313Z,12.97
2019-03-31T17:35:40.395Z,11.40
2019-03-31T17:38:12.336Z,13.40
2019-03-31T17:40:42.066Z,13.00
2019-03-31T17:43:11.932Z,12.47
2019-03-31T17:45:43.358Z,19.03
2019-03-31T17:48:13.040Z,14.53
2019-03-31T17:50:43.253Z,13.80
2019-03-31T17:53:13.194Z,15.43
2019-03-31T17:55:42.770Z,17.60
2019-03-31T17:58:12.809Z,15.27
2019-03-31T18:00:42.639Z,13.57
2019-03-31T18:03:15.475Z,15.27
2019-03-31T18:05:44.072Z,14.97
2019-03-31T18:08:13.130Z,13.73
2019-03-31T18:10:42.709Z,15.67
2019-03-31T18:13:12.602Z,14.27
2019-03-31T18:15:42.295Z,16.17
2019-03-31T18:18:12.021Z,14.63
2019-03-31T18:20:42.257Z,16.47
2019-03-31T18:23:11.927Z,17.80
2019-03-31T18:25:41.462Z,12.50
2019-03-31T18:28:10.844Z,14.40
2019-03-31T18:30:42.336Z,17.43
2019-03-31T18:33:12.663Z,14.47
2019-03-31T18:35:42.766Z,14.77
2019-03-31T18:38:12.755Z,15.17
2019-03-31T18:40:42.199Z,13.83
2019-03-31T18:43:12.750Z,13.93
2019-03-31T18:45:43.041Z,17.50
2019-03-31T18:48:13.309Z,14.60
2019-03-31T18:50:43.891Z,17.63
2019-03-31T18:53:20.379Z,15.53
2019-03-31T18:56:09.562Z,15.63
2019-03-31T18:58:56.340Z,19.50
2019-03-31T19:01:36.528Z,19.53
2019-03-31T19:04:35.616Z,13.30
2019-03-31T19:07:33.839Z,15.23
2019-03-31T19:10:24.535Z,12.93
2019-03-31T19:12:59.192Z,14.53
2019-03-31T19:15:48.285Z,13.37
2019-03-31T19:18:32.996Z,14.60
2019-03-31T19:21:15.188Z,14.20
2019-03-31T19:23:56.443Z,11.03
2019-03-31T19:27:02.746Z,12.73
2019-03-31T19:30:03.940Z,16.63
2019-03-31T19:32:47.992Z,16.50
2019-03-31T19:35:43.607Z,13.77
2019-03-31T19:38:33.901Z,11.93
2019-03-31T19:41:18.504Z,14.07
2019-03-31T19:44:05.597Z,13.57
2019-03-31T19:46:52.656Z,12.60
2019-03-31T19:49:52.414Z,13.83
2019-03-31T19:52:51.883Z,14.33
2019-03-31T19:55:39.602Z,12.93
2019-03-31T19:58:37.883Z,15.37
2019-03-31T20:01:44.107Z,18.23
2019-03-31T20:04:45.665Z,18.83
2019-03-31T20:07:34.870Z,18.70
2019-03-31T20:10:27.827Z,18.93
2019-03-31T20:13:31.795Z,21.30
2019-03-31T20:16:23.460Z,20.33
2019-03-31T20:19:06.815Z,18.20
2019-03-31T20:21:43.389Z,18.37
2019-03-31T20:24:29.567Z,14.10
2019-03-31T20:27:33.111Z,13.70
2019-03-31T20:30:21.327Z,13.93
2019-03-31T20:33:14.876Z,13.57
2019-03-31T20:36:06.071Z,12.60
2019-03-31T20:38:41.375Z,10.47
2019-03-31T20:41:35.467Z,15.53
2019-03-31T20:44:06.081Z,11.53
2019-03-31T20:46:36.153Z,13.27
2019-03-31T20:49:06.751Z,13.37
2019-03-31T20:51:37.455Z,12.93
2019-03-31T20:54:08.823Z,13.17
2019-03-31T20:56:39.910Z,14.10
2019-03-31T20:59:10.356Z,12.37
2019-03-31T21:01:39.775Z,13.73
2019-03-31T21:04:10.193Z,13.07
2019-03-31T21:06:40.732Z,11.67
2019-03-31T21:09:11.283Z,12.97
2019-03-31T21:11:40.880Z,12.33
2019-03-31T21:14:11.418Z,12.73
2019-03-31T21:16:40.811Z,14.60
2019-03-31T21:19:11.042Z,16.30
2019-03-31T21:21:40.739Z,13.60
2019-03-31T21:24:11.021Z,14.30
2019-03-31T21:26:40.476Z,16.70
2019-03-31T21:29:11.170Z,15.17
2019-03-31T21:31:40.502Z,10.50
2019-03-31T21:34:10.648Z,11.03
2019-03-31T21:36:42.356Z,13.03
2019-03-31T21:39:11.695Z,12.37
2019-03-31T21:41:41.170Z,11.47
2019-03-31T21:44:11.659Z,12.20
2019-03-31T21:46:41.039Z,13.23
2019-03-31T21:49:11.384Z,14.23
2019-03-31T21:51:41.143Z,11.30
2019-03-31T21:54:11.420Z,14.00
2019-03-31T21:56:40.767Z,13.73
2019-03-31T21:59:12.385Z,11.27
2019-03-31T22:01:41.682Z,10.70
2019-03-31T22:04:12.156Z,15.33
2019-03-31T22:06:42.554Z,15.33
2019-03-31T22:09:11.960Z,12.47
2019-03-31T22:11:42.265Z,13.73
2019-03-31T22:14:12.765Z,13.67
2019-03-31T22:16:42.086Z,17.70
2019-03-31T22:19:12.340Z,12.10
2019-03-31T22:21:42.963Z,14.17
2019-03-31T22:24:13.254Z,10.77
2019-03-31T22:26:43.556Z,11.87
2019-03-31T22:29:14.118Z,11.73
2019-03-31T22:31:44.482Z,11.77
2019-03-31T22:34:13.971Z,10.93
2019-03-31T22:36:43.710Z,12.23
2019-03-31T22:39:13.947Z,14.70
2019-03-31T22:41:44.511Z,13.27
2019-03-31T22:44:14.387Z,14.27
2019-03-31T22:46:54.216Z,11.37
2019-03-31T22:49:16.567Z,12.47
2019-03-31T22:51:47.247Z,12.03
2019-03-31T22:54:16.560Z,10.47
2019-03-31T22:56:46.007Z,8.00
2019-03-31T23:01:52.400Z,14.77
2019-03-31T23:04:21.959Z,16.80
2019-03-31T23:06:53.495Z,15.57
2019-03-31T23:09:23.900Z,10.50
2019-03-31T23:11:54.455Z,6.87
2019-03-31T23:14:25.056Z,13.87
2019-03-31T23:16:54.460Z,13.07
2019-03-31T23:19:24.629Z,10.30
2019-03-31T23:21:54.282Z,10.33
2019-03-31T23:24:24.474Z,10.03
2019-03-31T23:26:54.084Z,12.70
2019-03-31T23:29:24.756Z,12.57
2019-03-31T23:31:55.320Z,14.37
2019-03-31T23:34:25.625Z,10.10
2019-03-31T23:36:56.150Z,11.87
2019-03-31T23:39:26.297Z,13.50
2019-03-31T23:41:56.413Z,14.97
2019-03-31T23:44:26.878Z,12.37
2019-03-31T23:46:57.086Z,14.17
2019-03-31T23:49:27.172Z,11.57
2019-03-31T23:51:56.909Z,8.93
2019-03-31T23:54:26.264Z,10.90
2019-03-31T23:56:56.392Z,14.93
2019-03-31T23:59:27.025Z,9.40
